Delta Ios — SVAK9 — position and weather

sailwx.info

Track history (hours):
 
Tides and Currents Weather Stations Pressure Air Temp Water Temp Dewpoint Dewpoint Depression Visibility Wind Speed Wind Dir Waves Ship Positions

Delta Ios

Last reported at 2015-Aug-26 20:28 UTC. Time now 2015-Aug-29 21:00 UTC.
Position N 34°13' W 127°33'.

Length 276 m; draft 15 m.

Type: Ship (hazmat cat A). MMSI: 240821000.

Date/timePositionNaut miles runAvg speedWind from/ knotsBaromVisibWave heightAir tempDewpointWater temp
2015-Aug-26 20:28N 34°13' W 127°33'11511.6
2015-Aug-26 10:33N 33°04' W 125°41'10711.5
2015-Aug-26 01:15N 32°00' W 123°60'5311.4
2015-Aug-25 20:34N 31°28' W 123°10'2511.7
2015-Aug-25 18:26N 31°13' W 122°46'2311.8
2015-Aug-25 16:30N 30°60' W 122°25'1111.7
2015-Aug-25 15:32N 30°53' W 122°14'1611.8
2015-Aug-25 14:11N 30°44' W 121°60'711.7
2015-Aug-25 13:34N 30°39' W 121°53'1211.4
2015-Aug-25 12:32N 30°32' W 121°42'1211.4
2015-Aug-25 11:31N 30°25' W 121°31'1111.3
2015-Aug-25 10:34N 30°19' W 121°21'1111.3
2015-Aug-25 09:34N 30°12' W 121°11'1111.4
2015-Aug-25 08:34N 30°05' W 121°00'1111.4
2015-Aug-25 07:34N 29°59' W 120°50'1111.5
2015-Aug-25 06:34N 29°51' W 120°39'1211.6
2015-Aug-25 05:33N 29°44' W 120°29'1311.8
2015-Aug-25 04:28N 29°35' W 120°18'1111.8
2015-Aug-25 03:32N 29°28' W 120°09'1211.8
2015-Aug-25 02:32N 29°20' W 119°59'1411.9
2015-Aug-25 01:20N 29°10' W 119°47'1212.1
2015-Aug-25 00:21N 29°02' W 119°37'2712.1
2015-Aug-24 22:09N 28°44' W 119°14'812.2
2015-Aug-24 21:29N 28°39' W 119°08'2512.2
2015-Aug-24 19:28N 28°22' W 118°47'  
Track history (hours):
 
Tides and Currents Weather Stations Pressure Air Temp Water Temp Dewpoint Dewpoint Depression Visibility Wind Speed Wind Dir Waves Ship Positions

Delta Ios

Last reported at 2015-Aug-26 20:28 UTC. Time now 2015-Aug-29 21:00 UTC.
Position N 34°13' W 127°33'.

Length 276 m; draft 15 m.

Type: Ship (hazmat cat A). MMSI: 240821000.

Date/timePositionNaut miles runAvg speedWind from/ knotsBaromVisibWave heightAir tempDewpointWater temp
2015-Aug-26 20:28N 34°13' W 127°33'11511.6
2015-Aug-26 10:33N 33°04' W 125°41'10711.5
2015-Aug-26 01:15N 32°00' W 123°60'5311.4
2015-Aug-25 20:34N 31°28' W 123°10'2511.7
2015-Aug-25 18:26N 31°13' W 122°46'2311.8
2015-Aug-25 16:30N 30°60' W 122°25'1111.7
2015-Aug-25 15:32N 30°53' W 122°14'1611.8
2015-Aug-25 14:11N 30°44' W 121°60'711.7
2015-Aug-25 13:34N 30°39' W 121°53'1211.4
2015-Aug-25 12:32N 30°32' W 121°42'1211.4
2015-Aug-25 11:31N 30°25' W 121°31'1111.3
2015-Aug-25 10:34N 30°19' W 121°21'1111.3
2015-Aug-25 09:34N 30°12' W 121°11'1111.4
2015-Aug-25 08:34N 30°05' W 121°00'1111.4
2015-Aug-25 07:34N 29°59' W 120°50'1111.5
2015-Aug-25 06:34N 29°51' W 120°39'1211.6
2015-Aug-25 05:33N 29°44' W 120°29'1311.8
2015-Aug-25 04:28N 29°35' W 120°18'1111.8
2015-Aug-25 03:32N 29°28' W 120°09'1211.8
2015-Aug-25 02:32N 29°20' W 119°59'1411.9
2015-Aug-25 01:20N 29°10' W 119°47'1212.1
2015-Aug-25 00:21N 29°02' W 119°37'2712.1
2015-Aug-24 22:09N 28°44' W 119°14'812.2
2015-Aug-24 21:29N 28°39' W 119°08'2512.2
2015-Aug-24 19:28N 28°22' W 118°47'  

Dump ship's entire track history